Time;durP1;ratioP1;P1;durP2;ratioP2;P2;SDS_P1;SDS_P2;PMS_P1;PMS_P2;Temp;Humidity;BMP_temperature;BMP_pressure;BME280_temperature;BME280_humidity;BME280_pressure;Samples;Min_cycle;Max_cycle;Signal;HPM_P1;HPM_P2
2021/09/07 00:01:23;;;;;;;47.15;25.60;;;13.50;93.90;;;;;;4993147;28;20485;-69
2021/09/07 00:03:48;;;;;;;44.80;25.02;;;13.50;94.30;;;;;;5003376;28;20100;-69
2021/09/07 00:06:16;;;;;;;38.45;23.98;;;13.50;94.70;;;;;;4994189;28;20025;-69
2021/09/07 00:08:41;;;;;;;37.05;21.85;;;13.50;94.70;;;;;;4993155;28;20030;-68
2021/09/07 00:11:07;;;;;;;37.85;23.60;;;13.50;93.90;;;;;;4998021;28;20032;-68
2021/09/07 00:13:32;;;;;;;43.40;25.67;;;13.50;93.70;;;;;;5006719;28;20026;-69
2021/09/07 00:15:58;;;;;;;37.85;24.38;;;13.60;94.00;;;;;;5001416;28;20054;-68
2021/09/07 00:18:24;;;;;;;46.47;25.90;;;13.50;94.40;;;;;;4993070;28;20116;-69
2021/09/07 00:20:49;;;;;;;36.08;24.17;;;13.50;94.50;;;;;;5005829;28;20105;-69
2021/09/07 00:23:15;;;;;;;46.25;26.85;;;13.60;94.40;;;;;;5002552;28;20037;-69
2021/09/07 00:25:40;;;;;;;39.83;25.10;;;13.60;94.30;;;;;;4998245;28;20105;-67
2021/09/07 00:28:06;;;;;;;51.40;29.10;;;13.60;94.20;;;;;;5002909;28;20038;-68
2021/09/07 00:30:32;;;;;;;56.60;32.58;;;13.60;94.40;;;;;;5005203;28;20665;-69
2021/09/07 00:32:57;;;;;;;50.13;30.50;;;13.60;95.00;;;;;;4997479;28;20029;-69
2021/09/07 00:35:24;;;;;;;41.13;28.60;;;13.60;95.30;;;;;;5007254;28;20711;-69
2021/09/07 00:37:50;;;;;;;40.90;25.02;;;13.60;95.10;;;;;;5006112;28;20022;-69
2021/09/07 00:40:16;;;;;;;45.70;26.95;;;13.60;94.70;;;;;;5002781;28;20741;-69
2021/09/07 00:42:42;;;;;;;42.65;26.60;;;13.60;94.60;;;;;;5007500;28;20037;-69
2021/09/07 00:45:12;;;;;;;39.17;24.58;;;13.60;94.60;;;;;;5004994;28;20030;-69
2021/09/07 00:47:39;;;;;;;43.40;26.33;;;13.50;94.20;;;;;;4994409;28;20050;-69
2021/09/07 00:50:05;;;;;;;49.20;28.02;;;13.50;94.10;;;;;;5002824;28;20065;-69
2021/09/07 00:52:32;;;;;;;47.70;29.95;;;13.50;94.30;;;;;;5003908;28;20030;-69
2021/09/07 00:54:58;;;;;;;48.85;29.63;;;13.50;94.90;;;;;;5003069;28;20737;-69
2021/09/07 00:57:25;;;;;;;51.22;30.15;;;13.50;94.70;;;;;;5010253;28;20429;-69
2021/09/07 00:59:52;;;;;;;59.75;33.15;;;13.60;94.90;;;;;;5003341;28;20393;-68
2021/09/07 01:02:18;;;;;;;56.67;35.13;;;13.60;95.40;;;;;;4996169;28;20048;-69
2021/09/07 01:04:43;;;;;;;63.65;35.40;;;13.60;95.70;;;;;;4998178;28;20037;-69
2021/09/07 01:07:09;;;;;;;57.95;34.78;;;13.60;95.80;;;;;;5004002;28;20030;-68
2021/09/07 01:09:36;;;;;;;61.97;35.20;;;13.50;96.00;;;;;;4996474;28;20030;-70
2021/09/07 01:12:02;;;;;;;48.40;32.28;;;13.50;96.10;;;;;;4997053;28;20038;-68
2021/09/07 01:14:30;;;;;;;55.47;34.50;;;13.50;96.20;;;;;;5005422;28;20022;-67
2021/09/07 01:16:56;;;;;;;50.42;32.40;;;13.50;96.20;;;;;;4990261;28;20034;-68
2021/09/07 01:19:21;;;;;;;66.68;35.80;;;13.50;96.10;;;;;;4999453;28;20937;-69
2021/09/07 01:21:47;;;;;;;56.88;34.58;;;13.50;96.00;;;;;;5004020;28;20053;-68
2021/09/07 01:24:13;;;;;;;61.22;37.33;;;13.50;96.10;;;;;;5001043;28;20116;-69
2021/09/07 01:26:38;;;;;;;58.13;33.88;;;13.50;96.10;;;;;;5002481;28;20057;-68
2021/09/07 01:29:05;;;;;;;62.33;34.58;;;13.50;96.20;;;;;;5001212;28;20554;-69
2021/09/07 01:31:31;;;;;;;58.72;33.97;;;13.40;96.30;;;;;;5002689;28;20121;-67
2021/09/07 01:33:56;;;;;;;57.08;34.88;;;13.40;96.40;;;;;;5004489;28;20196;-69
2021/09/07 01:36:22;;;;;;;51.67;29.98;;;13.30;96.10;;;;;;5009431;28;20043;-69
2021/09/07 01:38:48;;;;;;;55.67;33.33;;;13.40;95.80;;;;;;5001852;28;20036;-69
2021/09/07 01:41:14;;;;;;;51.00;33.00;;;13.30;95.90;;;;;;5002146;28;20413;-69
2021/09/07 01:43:39;;;;;;;55.92;32.97;;;13.30;95.80;;;;;;4998798;28;20412;-69
2021/09/07 01:46:05;;;;;;;56.60;33.05;;;13.40;95.90;;;;;;5006152;28;20058;-69
2021/09/07 01:48:31;;;;;;;63.03;35.97;;;13.40;96.20;;;;;;4997581;28;20046;-69
2021/09/07 01:50:57;;;;;;;51.03;34.30;;;13.30;96.20;;;;;;4994652;28;20359;-69
2021/09/07 01:53:23;;;;;;;46.92;30.40;;;13.30;96.20;;;;;;4999110;28;20109;-69
2021/09/07 01:55:49;;;;;;;59.65;35.28;;;13.30;96.00;;;;;;5006266;28;20088;-68
2021/09/07 01:58:14;;;;;;;59.22;34.45;;;13.30;96.10;;;;;;4997593;28;20041;-69
2021/09/07 02:00:40;;;;;;;66.88;36.42;;;13.30;96.40;;;;;;5009153;28;20021;-69
2021/09/07 02:03:06;;;;;;;55.70;33.67;;;13.30;96.50;;;;;;5000875;28;20536;-69
2021/09/07 02:05:31;;;;;;;46.22;31.27;;;13.30;96.60;;;;;;4996992;28;20149;-69
2021/09/07 02:07:57;;;;;;;43.25;28.50;;;13.20;96.40;;;;;;4991606;28;20023;-67
2021/09/07 02:10:23;;;;;;;58.63;34.58;;;13.20;95.90;;;;;;4998263;28;20049;-69
2021/09/07 02:12:49;;;;;;;57.05;34.53;;;13.30;96.00;;;;;;4992808;28;20017;-69
2021/09/07 02:15:15;;;;;;;61.45;34.80;;;13.20;96.20;;;;;;4992973;28;20040;-69
2021/09/07 02:17:42;;;;;;;55.97;32.45;;;13.20;96.30;;;;;;5003425;28;20033;-69
2021/09/07 02:20:09;;;;;;;52.38;31.08;;;13.20;96.40;;;;;;5007325;28;20865;-68
2021/09/07 02:22:35;;;;;;;46.30;29.92;;;13.10;95.90;;;;;;4995851;28;20030;-69
2021/09/07 02:25:00;;;;;;;48.70;32.03;;;13.10;95.60;;;;;;5004213;28;20036;-68
2021/09/07 02:27:26;;;;;;;45.90;29.75;;;13.00;95.40;;;;;;4999578;28;20425;-69
2021/09/07 02:29:52;;;;;;;50.35;30.48;;;13.00;95.40;;;;;;4998865;28;20495;-69
2021/09/07 02:32:17;;;;;;;48.35;29.02;;;12.90;95.10;;;;;;4996529;28;20022;-68
2021/09/07 02:34:43;;;;;;;55.80;35.13;;;12.90;95.50;;;;;;5005082;28;20026;-68
2021/09/07 02:37:10;;;;;;;63.08;36.85;;;12.90;96.00;;;;;;4990862;28;20054;-68
2021/09/07 02:39:36;;;;;;;55.25;33.60;;;12.90;96.20;;;;;;5000971;28;20030;-69
2021/09/07 02:42:03;;;;;;;50.33;32.88;;;12.90;96.10;;;;;;4996458;28;20104;-67
2021/09/07 02:44:29;;;;;;;42.75;29.42;;;12.80;95.80;;;;;;5005247;28;20408;-68
2021/09/07 02:46:55;;;;;;;43.17;30.67;;;12.70;95.60;;;;;;4996403;28;20137;-69
2021/09/07 02:49:21;;;;;;;43.78;28.67;;;12.60;95.40;;;;;;4996029;28;20041;-69
2021/09/07 02:51:47;;;;;;;49.92;33.00;;;12.60;95.60;;;;;;5004714;28;20030;-68
2021/09/07 02:54:14;;;;;;;47.75;31.20;;;12.60;95.70;;;;;;4997889;28;20026;-69
2021/09/07 02:56:40;;;;;;;45.67;30.85;;;12.60;95.80;;;;;;5002482;28;20072;-69
2021/09/07 02:59:05;;;;;;;60.67;35.28;;;12.50;95.70;;;;;;5002691;28;20057;-69
2021/09/07 03:01:31;;;;;;;53.08;32.28;;;12.50;95.80;;;;;;4997715;28;20480;-67
2021/09/07 03:03:57;;;;;;;53.80;32.63;;;12.40;95.70;;;;;;4999821;28;20096;-68
2021/09/07 03:06:23;;;;;;;64.93;36.22;;;12.30;95.40;;;;;;4998665;28;20026;-69
2021/09/07 03:08:48;;;;;;;57.03;33.65;;;12.30;95.60;;;;;;4995500;28;20023;-68
2021/09/07 03:11:14;;;;;;;54.85;34.88;;;12.30;96.00;;;;;;5000948;28;20045;-68
2021/09/07 03:13:39;;;;;;;60.50;34.67;;;12.30;96.30;;;;;;4995212;28;20146;-69
2021/09/07 03:16:06;;;;;;;49.88;31.52;;;12.20;96.40;;;;;;4998194;28;20486;-69
2021/09/07 03:18:31;;;;;;;45.85;31.30;;;12.10;96.40;;;;;;4998501;28;20060;-69
2021/09/07 03:20:57;;;;;;;44.53;31.27;;;12.10;96.20;;;;;;5007124;28;20057;-69
2021/09/07 03:23:23;;;;;;;60.08;35.53;;;12.00;95.90;;;;;;4993925;28;20041;-67
2021/09/07 03:25:48;;;;;;;51.25;32.90;;;12.00;96.00;;;;;;4985305;28;20104;-68
2021/09/07 03:28:14;;;;;;;51.88;33.22;;;12.00;95.90;;;;;;4982732;28;20018;-69
2021/09/07 03:30:40;;;;;;;54.88;32.33;;;12.00;95.90;;;;;;4992273;28;20018;-69
2021/09/07 03:33:06;;;;;;;58.85;34.35;;;11.90;96.10;;;;;;4994358;28;20026;-69
2021/09/07 03:35:31;;;;;;;53.63;32.42;;;11.80;95.80;;;;;;4999530;28;20048;-69
2021/09/07 03:37:57;;;;;;;53.30;31.85;;;11.80;95.80;;;;;;4998154;28;20034;-68
2021/09/07 03:40:23;;;;;;;55.63;33.63;;;11.70;95.80;;;;;;5006143;28;20037;-69
2021/09/07 03:42:48;;;;;;;54.38;34.00;;;11.70;95.60;;;;;;5005627;28;20030;-69
2021/09/07 03:45:15;;;;;;;59.63;35.47;;;11.70;95.70;;;;;;4991000;28;20034;-69
2021/09/07 03:47:42;;;;;;;48.60;32.25;;;11.70;95.90;;;;;;4997640;28;20029;-68
2021/09/07 03:50:09;;;;;;;61.47;34.13;;;11.60;95.90;;;;;;5002796;28;20029;-69
2021/09/07 03:52:35;;;;;;;66.72;35.92;;;11.60;95.80;;;;;;4998122;28;20026;-69
2021/09/07 03:55:01;;;;;;;63.30;34.50;;;11.60;96.00;;;;;;5002712;28;20043;-69
2021/09/07 03:57:27;;;;;;;77.57;37.80;;;11.50;96.00;;;;;;4999826;28;20199;-68
2021/09/07 03:59:53;;;;;;;51.72;31.92;;;11.50;96.10;;;;;;5007302;28;20033;-68
2021/09/07 04:02:19;;;;;;;49.25;29.63;;;11.40;96.30;;;;;;5001108;28;20026;-69
2021/09/07 04:04:44;;;;;;;62.47;32.20;;;11.40;96.20;;;;;;5004692;28;20025;-69
2021/09/07 04:07:10;;;;;;;43.60;29.27;;;11.30;96.00;;;;;;4997487;28;20392;-69
2021/09/07 04:09:36;;;;;;;44.92;27.20;;;11.30;95.60;;;;;;4994262;28;20045;-69
2021/09/07 04:12:01;;;;;;;43.15;27.30;;;11.20;95.30;;;;;;4999339;28;20064;-69
2021/09/07 04:14:27;;;;;;;37.10;25.77;;;11.20;95.30;;;;;;5003464;28;20026;-68
2021/09/07 04:16:53;;;;;;;56.17;27.90;;;11.20;95.60;;;;;;4994464;28;20117;-69
2021/09/07 04:19:19;;;;;;;49.55;29.05;;;11.20;96.20;;;;;;5007039;28;20096;-69
2021/09/07 04:21:44;;;;;;;55.00;31.83;;;11.10;96.60;;;;;;4993219;28;20034;-66
2021/09/07 04:24:10;;;;;;;43.90;28.55;;;11.10;96.90;;;;;;5000127;28;20080;-64
2021/09/07 04:26:36;;;;;;;45.35;27.67;;;11.10;97.00;;;;;;4994438;28;20080;-65
2021/09/07 04:29:01;;;;;;;47.15;29.15;;;11.10;97.10;;;;;;4991163;28;20033;-65
2021/09/07 04:31:27;;;;;;;48.58;28.55;;;11.10;97.10;;;;;;4992130;28;20033;-65
2021/09/07 04:33:53;;;;;;;65.05;33.30;;;11.00;96.80;;;;;;4997924;28;20105;-65
2021/09/07 04:36:19;;;;;;;55.53;31.30;;;11.00;96.80;;;;;;4989500;28;20037;-64
2021/09/07 04:38:44;;;;;;;47.50;28.38;;;11.10;96.80;;;;;;5000359;28;20033;-64
2021/09/07 04:41:10;;;;;;;44.38;26.67;;;11.00;96.50;;;;;;4993785;28;20503;-65
2021/09/07 04:43:36;;;;;;;57.67;27.83;;;11.00;96.20;;;;;;4993228;28;20033;-65
2021/09/07 04:46:01;;;;;;;50.67;29.23;;;11.00;96.00;;;;;;4999457;28;20058;-63
2021/09/07 04:48:27;;;;;;;41.78;25.90;;;11.00;96.00;;;;;;4982679;28;20147;-64
2021/09/07 04:50:53;;;;;;;48.92;25.60;;;10.90;96.00;;;;;;5000098;28;20105;-65
2021/09/07 04:53:18;;;;;;;48.47;27.35;;;11.00;96.00;;;;;;4992330;28;20022;-64
2021/09/07 04:55:44;;;;;;;76.60;26.55;;;11.00;96.00;;;;;;5001001;28;20026;-64
2021/09/07 04:58:10;;;;;;;41.80;29.30;;;10.90;95.90;;;;;;4999245;28;20049;-65
2021/09/07 05:00:35;;;;;;;51.80;30.85;;;10.90;96.00;;;;;;4999232;28;20081;-65
2021/09/07 05:03:01;;;;;;;46.10;28.88;;;10.90;96.00;;;;;;5003409;28;20471;-65
2021/09/07 05:05:27;;;;;;;42.92;29.27;;;10.90;96.40;;;;;;4995794;28;20030;-65
2021/09/07 05:07:52;;;;;;;38.72;27.30;;;10.90;96.50;;;;;;5001698;28;20562;-64
2021/09/07 05:10:18;;;;;;;36.50;26.63;;;10.90;96.30;;;;;;5004494;28;20091;-65
2021/09/07 05:12:44;;;;;;;41.60;28.15;;;10.90;96.10;;;;;;5007712;28;20022;-66
2021/09/07 05:15:09;;;;;;;52.28;31.42;;;10.90;96.00;;;;;;5002280;28;20056;-64
2021/09/07 05:17:35;;;;;;;44.03;26.60;;;11.00;96.30;;;;;;5002519;28;20037;-63
2021/09/07 05:20:01;;;;;;;42.78;27.88;;;11.00;96.30;;;;;;5001826;28;20493;-63
2021/09/07 05:22:27;;;;;;;50.08;27.58;;;11.00;96.00;;;;;;5004508;28;20029;-63
2021/09/07 05:24:53;;;;;;;71.45;31.92;;;11.00;95.90;;;;;;5013526;28;20076;-66
2021/09/07 05:27:18;;;;;;;63.95;30.40;;;11.00;96.10;;;;;;4999743;28;20041;-65
2021/09/07 05:29:44;;;;;;;61.92;29.40;;;11.00;96.50;;;;;;4999758;28;20553;-64
2021/09/07 05:32:11;;;;;;;41.45;26.95;;;11.00;96.70;;;;;;5002503;28;20026;-64
2021/09/07 05:34:37;;;;;;;38.63;25.63;;;11.00;96.70;;;;;;5007543;28;20129;-64
2021/09/07 05:37:03;;;;;;;44.58;26.90;;;11.00;96.50;;;;;;5005214;28;20152;-64
2021/09/07 05:39:28;;;;;;;36.42;26.52;;;11.00;96.40;;;;;;5008892;28;20108;-63
2021/09/07 05:41:54;;;;;;;95.93;30.67;;;11.00;96.50;;;;;;5005541;28;20029;-65
2021/09/07 05:44:21;;;;;;;66.90;31.65;;;11.10;96.50;;;;;;5001543;28;20033;-65
2021/09/07 05:46:48;;;;;;;70.65;31.92;;;11.10;96.60;;;;;;5000454;28;20497;-63
2021/09/07 05:49:13;;;;;;;47.22;29.10;;;11.10;96.90;;;;;;5010634;28;20022;-63
2021/09/07 05:51:41;;;;;;;46.25;31.60;;;11.20;97.10;;;;;;5006249;28;20018;-63
2021/09/07 05:54:07;;;;;;;44.10;31.60;;;11.30;97.00;;;;;;5002675;28;20768;-65
2021/09/07 05:56:33;;;;;;;48.13;32.30;;;11.40;96.90;;;;;;5006710;28;20100;-66
2021/09/07 05:58:59;;;;;;;41.42;29.88;;;11.40;96.80;;;;;;5007014;28;20055;-65
2021/09/07 06:01:24;;;;;;;39.50;30.02;;;11.50;96.80;;;;;;5006289;28;22210;-65
2021/09/07 06:03:50;;;;;;;40.50;30.45;;;11.50;96.80;;;;;;5007037;28;20642;-66
2021/09/07 06:06:15;;;;;;;44.80;31.02;;;11.70;96.80;;;;;;5008784;28;20030;-66
2021/09/07 06:08:41;;;;;;;46.60;29.13;;;11.70;96.80;;;;;;5007158;28;20393;-66
2021/09/07 06:11:08;;;;;;;84.63;29.48;;;11.70;96.90;;;;;;5003932;28;20412;-65
2021/09/07 06:13:34;;;;;;;57.58;28.70;;;11.70;96.90;;;;;;5018262;28;20025;-66
2021/09/07 06:16:00;;;;;;;39.65;27.60;;;11.90;97.20;;;;;;5008172;28;20044;-66
2021/09/07 06:18:26;;;;;;;41.72;28.27;;;11.90;97.10;;;;;;5004105;28;20157;-66
2021/09/07 06:20:52;;;;;;;40.67;26.63;;;12.00;97.10;;;;;;5006893;28;20499;-66
2021/09/07 06:23:18;;;;;;;27.50;22.60;;;12.10;97.10;;;;;;5005692;28;20117;-66
2021/09/07 06:25:44;;;;;;;33.72;25.75;;;12.20;97.00;;;;;;5003346;28;20251;-64
2021/09/07 06:28:09;;;;;;;26.88;21.25;;;12.40;97.00;;;;;;5004845;28;20030;-64
2021/09/07 06:30:35;;;;;;;27.88;22.95;;;12.40;96.90;;;;;;5007110;28;20026;-64
2021/09/07 06:33:01;;;;;;;31.52;24.77;;;12.60;97.20;;;;;;5004441;28;20479;-64
2021/09/07 06:35:27;;;;;;;38.38;27.83;;;12.80;97.30;;;;;;5013846;28;20073;-65
2021/09/07 06:37:54;;;;;;;39.63;28.05;;;12.90;97.40;;;;;;5005521;28;20503;-63
2021/09/07 06:40:20;;;;;;;38.00;28.20;;;13.10;97.50;;;;;;5001971;28;20033;-66
2021/09/07 06:42:45;;;;;;;45.17;28.92;;;13.20;97.40;;;;;;4994268;28;20037;-66
2021/09/07 06:45:11;;;;;;;46.90;31.42;;;13.30;97.40;;;;;;4996242;28;20030;-65
2021/09/07 06:47:37;;;;;;;42.00;30.13;;;13.50;97.30;;;;;;4984979;28;20037;-64
2021/09/07 06:50:05;;;;;;;36.47;26.95;;;13.60;97.20;;;;;;4996502;28;20041;-66
2021/09/07 06:52:31;;;;;;;34.55;24.77;;;13.60;97.10;;;;;;4997814;28;20503;-63
2021/09/07 06:54:57;;;;;;;36.25;24.02;;;13.60;97.00;;;;;;5008065;28;20113;-66
2021/09/07 06:57:25;;;;;;;29.85;22.08;;;13.70;96.80;;;;;;5008005;28;20473;-65
2021/09/07 06:59:52;;;;;;;29.25;22.35;;;13.80;96.80;;;;;;5000977;28;20054;-66
2021/09/07 07:02:18;;;;;;;29.73;23.58;;;13.90;96.40;;;;;;4993995;28;20410;-66
2021/09/07 07:04:44;;;;;;;26.58;22.08;;;14.00;96.30;;;;;;5005583;28;20033;-64
2021/09/07 07:07:09;;;;;;;28.33;21.80;;;14.10;96.10;;;;;;5004128;28;20022;-66
2021/09/07 07:09:35;;;;;;;31.40;22.45;;;14.20;95.90;;;;;;5003543;28;20033;-65
2021/09/07 07:12:01;;;;;;;32.55;23.30;;;14.30;95.80;;;;;;5004927;28;20485;-65
2021/09/07 07:14:26;;;;;;;30.63;23.20;;;14.40;95.70;;;;;;5006040;28;20026;-66
2021/09/07 07:16:52;;;;;;;33.03;21.98;;;14.50;95.20;;;;;;5004581;28;20036;-64
2021/09/07 07:19:17;;;;;;;29.10;23.42;;;14.60;95.00;;;;;;5002067;28;20112;-65
2021/09/07 07:21:43;;;;;;;33.20;23.10;;;14.70;94.90;;;;;;5009349;28;20033;-64
2021/09/07 07:24:08;;;;;;;29.00;21.60;;;14.80;94.60;;;;;;5001804;28;20034;-66
2021/09/07 07:26:34;;;;;;;29.08;21.52;;;15.00;94.40;;;;;;5005319;28;20061;-64
2021/09/07 07:29:00;;;;;;;32.58;20.45;;;15.10;93.70;;;;;;5001949;28;20023;-66
2021/09/07 07:31:25;;;;;;;29.02;20.15;;;15.20;93.40;;;;;;5006420;28;20135;-65
2021/09/07 07:33:51;;;;;;;22.98;18.42;;;15.20;93.20;;;;;;5001380;28;20029;-67
2021/09/07 07:36:17;;;;;;;24.90;17.30;;;15.40;92.70;;;;;;5003657;28;20026;-64
2021/09/07 07:38:42;;;;;;;20.63;15.75;;;15.50;92.30;;;;;;4995549;28;20701;-65
2021/09/07 07:41:08;;;;;;;21.38;15.60;;;15.50;91.90;;;;;;5004176;28;20157;-65
2021/09/07 07:43:43;;;;;;;22.23;16.75;;;15.60;91.60;;;;;;4993359;28;20106;-65
2021/09/07 07:46:09;;;;;;;20.13;15.30;;;15.70;92.20;;;;;;5005133;28;20652;-65
2021/09/07 07:48:35;;;;;;;22.77;16.13;;;15.80;92.00;;;;;;5005111;28;20100;-63
2021/09/07 07:51:00;;;;;;;17.63;12.88;;;15.80;91.70;;;;;;5002212;28;20030;-65
2021/09/07 07:53:26;;;;;;;18.00;10.95;;;15.90;91.10;;;;;;5000611;28;20109;-65
2021/09/07 07:55:51;;;;;;;18.67;10.27;;;16.10;90.10;;;;;;4996162;28;20049;-63
2021/09/07 07:58:17;;;;;;;13.38;10.60;;;16.20;89.70;;;;;;5000678;28;20045;-67
2021/09/07 08:00:45;;;;;;;19.05;9.57;;;16.30;89.40;;;;;;5000953;28;20057;-63
2021/09/07 08:03:11;;;;;;;16.15;9.80;;;16.30;88.70;;;;;;4999906;28;20034;-63
2021/09/07 08:05:38;;;;;;;14.30;9.75;;;16.50;88.40;;;;;;5004138;28;20026;-64
2021/09/07 08:08:03;;;;;;;12.80;8.20;;;16.70;88.40;;;;;;5002227;28;20025;-66
2021/09/07 08:10:29;;;;;;;11.23;8.40;;;16.60;87.40;;;;;;5002866;28;20029;-65
2021/09/07 08:12:55;;;;;;;12.80;8.18;;;16.80;86.90;;;;;;5004612;28;20038;-66
2021/09/07 08:15:20;;;;;;;12.98;8.27;;;17.00;86.60;;;;;;4997585;28;20025;-64
2021/09/07 08:17:48;;;;;;;11.90;6.45;;;17.10;86.70;;;;;;5005399;28;20030;-64
2021/09/07 08:20:14;;;;;;;12.43;6.45;;;17.20;86.20;;;;;;5009302;28;20547;-65
2021/09/07 08:22:39;;;;;;;9.50;5.93;;;17.30;84.90;;;;;;5000890;28;20038;-65
2021/09/07 08:25:05;;;;;;;9.55;5.82;;;17.50;85.40;;;;;;5001701;28;20394;-65
2021/09/07 08:27:31;;;;;;;10.63;6.43;;;17.60;85.10;;;;;;5004370;28;20385;-65
2021/09/07 08:29:57;;;;;;;9.52;5.90;;;17.90;86.20;;;;;;5003754;28;20040;-66
2021/09/07 08:32:22;;;;;;;13.25;6.97;;;17.80;82.90;;;;;;5002184;28;20061;-66
2021/09/07 08:34:48;;;;;;;12.23;6.32;;;18.20;83.70;;;;;;5002340;28;20488;-66
2021/09/07 08:37:13;;;;;;;13.38;7.00;;;18.30;82.80;;;;;;5004300;28;20057;-66
2021/09/07 08:39:39;;;;;;;10.30;6.55;;;18.20;80.60;;;;;;4998978;28;20034;-65
2021/09/07 08:42:11;;;;;;;12.77;6.95;;;18.20;81.00;;;;;;5002377;28;20026;-65
2021/09/07 08:44:37;;;;;;;11.02;5.93;;;18.20;81.20;;;;;;5010754;28;20026;-66
2021/09/07 08:47:03;;;;;;;7.57;5.07;;;18.30;79.50;;;;;;5006205;28;20041;-66
2021/09/07 08:49:28;;;;;;;9.55;4.95;;;18.50;80.20;;;;;;4997986;28;20029;-65
2021/09/07 08:51:54;;;;;;;7.93;4.85;;;18.60;77.90;;;;;;5008521;28;20052;-65
2021/09/07 08:54:20;;;;;;;10.80;5.30;;;18.80;77.70;;;;;;5006064;28;20025;-65
2021/09/07 08:56:45;;;;;;;8.73;4.63;;;18.80;77.40;;;;;;5002690;28;20045;-65
2021/09/07 08:59:12;;;;;;;9.25;5.53;;;19.00;78.90;;;;;;5002773;28;20085;-65
2021/09/07 09:01:41;;;;;;;9.70;5.47;;;19.20;77.20;;;;;;5005207;28;20045;-66
2021/09/07 09:04:24;;;;;;;8.68;4.95;;;19.30;76.30;;;;;;5001144;28;20109;-66
2021/09/07 09:06:50;;;;;;;9.95;5.32;;;19.50;75.70;;;;;;5005510;28;20025;-66
2021/09/07 09:09:15;;;;;;;8.60;5.07;;;19.50;76.40;;;;;;5004304;28;20037;-67
2021/09/07 09:11:53;;;;;;;10.10;5.03;;;19.70;76.20;;;;;;5003282;28;20022;-66
2021/09/07 09:14:33;;;;;;;9.73;4.88;;;19.70;74.80;;;;;;5003112;28;20032;-66
2021/09/07 09:16:59;;;;;;;12.50;4.72;;;19.80;76.10;;;;;;5006446;28;20188;-67
2021/09/07 09:19:25;;;;;;;9.43;3.75;;;20.00;74.50;;;;;;5003722;28;20065;-66
2021/09/07 09:21:51;;;;;;;12.27;4.18;;;20.10;73.10;;;;;;5002284;28;20321;-65
2021/09/07 09:24:22;;;;;;;9.82;4.40;;;20.20;71.60;;;;;;5007720;28;20030;-64
2021/09/07 09:27:03;;;;;;;8.77;3.83;;;20.40;70.90;;;;;;4997768;28;20083;-66
2021/09/07 09:29:34;;;;;;;6.88;3.92;;;20.40;68.60;;;;;;5009597;28;20104;-66
2021/09/07 09:32:09;;;;;;;8.57;4.60;;;20.60;70.40;;;;;;5011687;28;20646;-66
2021/09/07 09:34:36;;;;;;;8.15;4.38;;;20.70;70.00;;;;;;5005604;28;20038;-65
2021/09/07 09:37:14;;;;;;;8.68;4.30;;;20.70;66.40;;;;;;5007824;28;20060;-65
2021/09/07 09:39:50;;;;;;;10.27;4.93;;;20.60;68.40;;;;;;4999894;28;20026;-66
2021/09/07 09:42:29;;;;;;;7.38;4.65;;;20.60;68.90;;;;;;4994190;28;20109;-66
2021/09/07 09:45:03;;;;;;;10.45;4.53;;;20.30;68.90;;;;;;4997233;28;20647;-65
2021/09/07 09:47:41;;;;;;;10.20;4.43;;;20.30;69.50;;;;;;5000787;28;20448;-66
2021/09/07 09:50:08;;;;;;;8.48;4.35;;;20.50;69.80;;;;;;5006663;28;20113;-64
2021/09/07 09:52:39;;;;;;;9.95;4.45;;;20.90;69.30;;;;;;5004937;28;20026;-66
2021/09/07 09:55:06;;;;;;;9.02;4.78;;;21.00;68.80;;;;;;5005617;28;20795;-66
2021/09/07 09:57:33;;;;;;;9.00;4.15;;;21.00;67.80;;;;;;5006199;28;20030;-66
2021/09/07 10:00:00;;;;;;;6.07;3.72;;;20.80;67.00;;;;;;5008578;28;20022;-66
2021/09/07 10:02:28;;;;;;;6.70;3.80;;;21.00;67.20;;;;;;5005945;28;20034;-65
2021/09/07 10:04:54;;;;;;;8.38;4.05;;;21.30;68.70;;;;;;5006169;28;20032;-66
2021/09/07 10:07:21;;;;;;;7.53;3.83;;;21.50;66.90;;;;;;5009712;28;20033;-66
2021/09/07 10:09:48;;;;;;;9.75;4.03;;;21.60;65.20;;;;;;5006845;28;20092;-66
2021/09/07 10:12:21;;;;;;;7.88;4.20;;;21.90;65.50;;;;;;5002422;28;20022;-66
2021/09/07 10:15:00;;;;;;;7.65;4.00;;;22.00;64.20;;;;;;5004261;28;20024;-66
2021/09/07 10:20:02;;;;;;;8.13;4.18;;;22.10;63.70;;;;;;5003132;28;20033;-66
2021/09/07 10:25:47;;;;;;;5.93;3.00;;;22.40;64.90;;;;;;5002866;28;20026;-64
2021/09/07 10:28:31;;;;;;;6.22;3.03;;;22.50;62.40;;;;;;5016876;28;20029;-64
2021/09/07 10:31:18;;;;;;;5.10;3.13;;;22.40;60.60;;;;;;5008765;28;20087;-64
2021/09/07 10:33:47;;;;;;;5.05;2.67;;;22.50;58.60;;;;;;5002950;28;20081;-65
2021/09/07 10:36:20;;;;;;;4.78;2.80;;;22.50;59.30;;;;;;5007173;28;20029;-66
2021/09/07 10:39:01;;;;;;;6.75;3.55;;;22.70;59.20;;;;;;5005301;28;20034;-65
2021/09/07 10:41:32;;;;;;;6.97;3.33;;;22.50;59.10;;;;;;4996976;28;20056;-65
2021/09/07 10:44:01;;;;;;;7.13;3.20;;;22.50;61.70;;;;;;5005071;28;20657;-66
2021/09/07 10:46:58;;;;;;;6.95;3.08;;;22.90;63.10;;;;;;5002852;28;20041;-66
2021/09/07 10:49:33;;;;;;;7.05;3.05;;;23.00;59.70;;;;;;5006353;28;20444;-64
2021/09/07 10:52:10;;;;;;;7.30;3.35;;;23.00;59.20;;;;;;5003411;28;20036;-64
2021/09/07 10:54:47;;;;;;;7.50;3.38;;;23.20;57.40;;;;;;5004037;28;20444;-66
2021/09/07 10:57:31;;;;;;;6.60;2.65;;;23.20;60.90;;;;;;4996281;28;20033;-64
2021/09/07 10:59:58;;;;;;;6.60;2.78;;;23.20;60.00;;;;;;5006634;28;20038;-64
2021/09/07 11:02:44;;;;;;;7.72;3.10;;;23.20;60.70;;;;;;4998160;28;20479;-66
2021/09/07 11:05:34;;;;;;;6.88;2.92;;;23.20;60.40;;;;;;5001247;28;20440;-66
2021/09/07 11:08:19;;;;;;;6.18;3.00;;;23.30;59.70;;;;;;5001705;28;20026;-65
2021/09/07 11:10:52;;;;;;;5.35;2.70;;;23.20;60.30;;;;;;4999346;28;20417;-66
2021/09/07 11:13:21;;;;;;;5.30;3.15;;;23.20;62.10;;;;;;4999583;28;20092;-65
2021/09/07 11:15:48;;;;;;;5.55;2.47;;;23.00;58.10;;;;;;5008667;28;20025;-65
2021/09/07 11:18:16;;;;;;;5.70;2.67;;;23.50;60.00;;;;;;5003489;28;20030;-66
2021/09/07 11:20:44;;;;;;;7.80;3.28;;;23.40;58.10;;;;;;5003522;28;20026;-65
2021/09/07 11:23:17;;;;;;;6.88;3.00;;;23.60;59.00;;;;;;5003008;28;20022;-66
2021/09/07 11:26:09;;;;;;;4.90;3.05;;;23.90;59.90;;;;;;5004044;28;20030;-65
2021/09/07 11:28:37;;;;;;;5.13;2.70;;;24.10;58.90;;;;;;5002776;28;20030;-67
2021/09/07 11:31:04;;;;;;;6.90;3.10;;;24.30;57.30;;;;;;5003857;28;20401;-64
2021/09/07 11:33:34;;;;;;;5.70;2.60;;;24.30;55.90;;;;;;4999872;28;20076;-65
2021/09/07 11:36:09;;;;;;;7.32;3.08;;;23.90;58.00;;;;;;5003260;28;20034;-65
2021/09/07 11:38:40;;;;;;;5.78;2.85;;;24.20;58.00;;;;;;5004462;28;20030;-66
2021/09/07 11:41:11;;;;;;;6.65;3.08;;;23.60;55.60;;;;;;5013841;28;20456;-66
2021/09/07 11:43:38;;;;;;;;;;;23.70;58.00;;;;;;5003165;28;20048;-64
2021/09/07 11:46:19;;;;;;;8.35;3.40;;;24.00;57.80;;;;;;5006654;28;19913;-65
2021/09/07 11:48:50;;;;;;;7.57;3.00;;;24.40;52.90;;;;;;5002010;28;20089;-65
2021/09/07 11:51:18;;;;;;;;;;;25.00;54.70;;;;;;4999439;28;20091;-66
2021/09/07 11:53:54;;;;;;;4.03;2.90;;;24.60;52.90;;;;;;5000793;28;20403;-66
2021/09/07 11:56:28;;;;;;;7.53;2.85;;;24.40;53.20;;;;;;5005719;28;20409;-65
2021/09/07 11:59:07;;;;;;;8.23;3.15;;;25.10;54.80;;;;;;5003444;28;20038;-66
2021/09/07 12:01:41;;;;;;;7.23;2.90;;;25.80;52.00;;;;;;5001944;28;20052;-65
2021/09/07 12:04:07;;;;;;;6.50;2.60;;;25.80;54.10;;;;;;5001453;28;20034;-64
2021/09/07 12:06:36;;;;;;;7.32;3.10;;;25.90;51.10;;;;;;5004246;28;20092;-67
2021/09/07 12:09:21;;;;;;;7.53;2.83;;;25.30;51.60;;;;;;5001342;28;20479;-66
2021/09/07 12:11:53;;;;;;;4.82;2.45;;;25.90;49.50;;;;;;4994669;28;20121;-64
2021/09/07 12:14:24;;;;;;;4.85;2.67;;;25.50;50.40;;;;;;4992408;28;20025;-67
2021/09/07 12:16:57;;;;;;;4.45;2.67;;;26.00;48.20;;;;;;5002376;28;20041;-66
2021/09/07 12:19:33;;;;;;;6.20;2.92;;;25.80;51.10;;;;;;5005477;28;20109;-67
2021/09/07 12:22:14;;;;;;;6.80;2.80;;;26.50;51.10;;;;;;4995448;28;20068;-66
2021/09/07 12:25:03;;;;;;;4.78;2.60;;;25.80;49.70;;;;;;5003801;28;20049;-66
2021/09/07 12:27:31;;;;;;;5.97;3.00;;;26.00;50.10;;;;;;5001023;28;20421;-67
2021/09/07 12:30:16;;;;;;;4.68;2.40;;;26.60;49.40;;;;;;5006994;28;20030;-67
2021/09/07 12:32:46;;;;;;;5.38;2.70;;;25.70;50.90;;;;;;5004024;28;20022;-65
2021/09/07 12:35:24;;;;;;;5.80;3.17;;;26.50;48.20;;;;;;4994490;28;20038;-65
2021/09/07 12:37:49;;;;;;;5.10;2.78;;;26.50;50.20;;;;;;5003027;28;20121;-64
2021/09/07 12:40:15;;;;;;;5.88;2.75;;;25.70;47.80;;;;;;5005152;28;20105;-63
2021/09/07 12:42:41;;;;;;;4.70;2.65;;;26.00;48.20;;;;;;5005580;28;20038;-64